createdAt,value
2019-04-28T00:01:15.565Z,99983.04
2019-04-28T00:03:43.321Z,99979.01
2019-04-28T00:06:11.128Z,99977.36
2019-04-28T00:08:38.771Z,99970.52
2019-04-28T00:11:06.400Z,99973.10
2019-04-28T00:13:34.044Z,99972.09
2019-04-28T00:16:01.819Z,99972.36
2019-04-28T00:18:31.540Z,99972.55
2019-04-28T00:21:07.550Z,99976.98
2019-04-28T00:23:54.275Z,99969.50
2019-04-28T00:26:27.074Z,99979.72
2019-04-28T00:28:54.792Z,99979.97
2019-04-28T00:31:22.624Z,99974.20
2019-04-28T00:33:51.444Z,99979.77
2019-04-28T00:36:19.211Z,99987.46
2019-04-28T00:38:46.843Z,99987.03
2019-04-28T00:41:14.492Z,99982.69
2019-04-28T00:43:42.267Z,99982.16
2019-04-28T00:46:10.811Z,99979.20
2019-04-28T00:48:40.900Z,99977.47
2019-04-28T00:51:08.715Z,99979.14
2019-04-28T00:53:36.360Z,99971.07
2019-04-28T00:56:04.163Z,99973.62
2019-04-28T00:58:32.064Z,99971.07
2019-04-28T01:01:02.804Z,99971.31
2019-04-28T01:03:32.155Z,99967.77
2019-04-28T01:06:01.764Z,99973.16
2019-04-28T01:08:30.898Z,99971.45
2019-04-28T01:10:58.957Z,99976.84
2019-04-28T01:13:26.835Z,99980.67
2019-04-28T01:16:04.442Z,99983.61
2019-04-28T01:18:40.472Z,99987.40
2019-04-28T01:21:08.352Z,99985.75
2019-04-28T01:23:36.123Z,99983.47
2019-04-28T01:26:03.802Z,99986.94
2019-04-28T01:28:31.440Z,99983.95
2019-04-28T01:31:06.901Z,99993.42
2019-04-28T01:33:56.537Z,99996.79
2019-04-28T01:36:24.168Z,100004.91
2019-04-28T01:38:51.807Z,100007.26
2019-04-28T01:41:19.856Z,100009.92
2019-04-28T01:43:47.848Z,100011.62
2019-04-28T01:46:15.485Z,100021.67
2019-04-28T01:48:43.119Z,100024.55
2019-04-28T01:51:10.763Z,100026.95
2019-04-28T01:53:39.603Z,100025.98
2019-04-28T01:56:07.607Z,100030.80
2019-04-28T01:58:35.362Z,100034.93
2019-04-28T02:01:03.008Z,100028.18
2019-04-28T02:03:30.877Z,100026.22
2019-04-28T02:06:00.201Z,100027.13
2019-04-28T02:08:30.117Z,100026.23
2019-04-28T02:10:57.561Z,100024.86
2019-04-28T02:13:25.202Z,100025.98
2019-04-28T02:15:52.838Z,100027.02
2019-04-28T02:18:20.471Z,100021.86
2019-04-28T02:20:53.264Z,100022.12
2019-04-28T02:23:26.357Z,100023.31
2019-04-28T02:25:54.069Z,100020.41
2019-04-28T02:28:21.707Z,100017.98
2019-04-28T02:30:53.613Z,100011.92
2019-04-28T02:33:20.987Z,100010.11
2019-04-28T02:35:48.123Z,100013.62
2019-04-28T02:38:15.758Z,100021.10
2019-04-28T02:40:43.404Z,100018.43
2019-04-28T02:43:11.574Z,100020.69
2019-04-28T02:45:41.250Z,100016.80
2019-04-28T02:48:13.154Z,100020.22
2019-04-28T02:50:50.874Z,100019.78
2019-04-28T02:53:23.386Z,100022.38
2019-04-28T02:55:51.561Z,100022.81
2019-04-28T02:58:22.314Z,100027.80
2019-04-28T03:01:02.632Z,100034.64
2019-04-28T03:03:20.892Z,100038.14
2019-04-28T03:05:47.553Z,100045.88
2019-04-28T03:08:15.259Z,100049.73
2019-04-28T03:10:42.910Z,100061.18
2019-04-28T03:13:13.279Z,100067.20
2019-04-28T03:15:41.402Z,100071.93
2019-04-28T03:18:11.554Z,100074.89
2019-04-28T03:20:41.523Z,100073.39
2019-04-28T03:23:09.866Z,100076.78
2019-04-28T03:25:44.482Z,100068.28
2019-04-28T03:28:17.558Z,100074.78
2019-04-28T03:30:54.621Z,100073.29
2019-04-28T03:33:25.607Z,100065.93
2019-04-28T03:35:53.907Z,100072.34
2019-04-28T03:38:22.005Z,100084.44
2019-04-28T03:40:51.217Z,100081.25
2019-04-28T03:43:21.230Z,100082.34
2019-04-28T03:45:53.575Z,100082.00
2019-04-28T03:48:21.217Z,100083.33
2019-04-28T03:50:51.311Z,100081.70
2019-04-28T03:53:20.601Z,100100.14
2019-04-28T03:55:47.815Z,100091.49
2019-04-28T03:58:15.574Z,100092.71
2019-04-28T04:00:43.232Z,100097.34
2019-04-28T04:03:11.166Z,100094.47
2019-04-28T04:05:40.644Z,100103.32
2019-04-28T04:08:11.002Z,100102.95
2019-04-28T04:10:46.972Z,100112.34
2019-04-28T04:13:20.126Z,100120.81
2019-04-28T04:16:11.944Z,100127.19
2019-04-28T04:18:43.254Z,100131.22
2019-04-28T04:21:11.317Z,100132.61
2019-04-28T04:23:41.105Z,100136.52
2019-04-28T04:26:11.432Z,100132.20
2019-04-28T04:28:37.868Z,100138.94
2019-04-28T04:31:05.695Z,100134.74
2019-04-28T04:33:33.337Z,100132.67
2019-04-28T04:36:01.771Z,100130.77
2019-04-28T04:38:31.152Z,100128.02
2019-04-28T04:41:01.546Z,100117.47
2019-04-28T04:43:31.050Z,100122.31
2019-04-28T04:46:03.337Z,100122.36
2019-04-28T04:48:31.241Z,100120.19
2019-04-28T04:51:00.736Z,100122.60
2019-04-28T04:53:30.695Z,100128.72
2019-04-28T04:56:00.234Z,100117.07
2019-04-28T04:58:27.466Z,100120.38
2019-04-28T05:01:03.276Z,100119.17
2019-04-28T05:03:33.737Z,100122.30
2019-04-28T05:06:01.485Z,100117.45
2019-04-28T05:08:30.143Z,100125.12
2019-04-28T05:10:59.928Z,100132.58
2019-04-28T05:13:27.348Z,100132.08
2019-04-28T05:15:55.029Z,100132.55
2019-04-28T05:18:22.871Z,100137.31
2019-04-28T05:20:50.709Z,100135.69
2019-04-28T05:23:26.695Z,100140.44
2019-04-28T05:25:54.396Z,100151.06
2019-04-28T05:28:22.043Z,100142.93
2019-04-28T05:30:50.269Z,100148.56
2019-04-28T05:33:30.237Z,100151.06
2019-04-28T05:35:54.544Z,100153.29
2019-04-28T05:38:22.345Z,100156.23
2019-04-28T05:40:49.987Z,100159.70
2019-04-28T05:43:19.583Z,100163.92
2019-04-28T05:45:47.032Z,100167.62
2019-04-28T05:48:16.333Z,100169.89
2019-04-28T05:50:50.241Z,100171.23
2019-04-28T05:53:24.764Z,100170.44
2019-04-28T05:55:56.914Z,100173.61
2019-04-28T05:58:30.188Z,100176.34
2019-04-28T06:01:22.440Z,100169.73
2019-04-28T06:03:50.155Z,100166.58
2019-04-28T06:06:20.444Z,100178.93
2019-04-28T06:09:10.338Z,100170.91
2019-04-28T06:11:39.757Z,100178.98
2019-04-28T06:14:09.769Z,100174.25
2019-04-28T06:16:36.983Z,100182.95
2019-04-28T06:19:04.668Z,100181.59
2019-04-28T06:21:32.493Z,100184.98
2019-04-28T06:24:00.378Z,100180.72
2019-04-28T06:26:28.024Z,100185.93
2019-04-28T06:28:55.672Z,100190.38
2019-04-28T06:31:23.319Z,100187.45
2019-04-28T06:33:50.985Z,100183.83
2019-04-28T06:36:18.628Z,100197.33
2019-04-28T06:38:46.584Z,100192.48
2019-04-28T06:41:14.499Z,100195.28
2019-04-28T06:43:42.143Z,100197.39
2019-04-28T06:46:09.789Z,100199.63
2019-04-28T06:48:37.448Z,100204.50
2019-04-28T06:51:05.099Z,100215.94
2019-04-28T06:53:32.780Z,100217.57
2019-04-28T06:56:00.547Z,100213.54
2019-04-28T06:58:28.430Z,100213.54
2019-04-28T07:00:56.087Z,100215.39
2019-04-28T07:03:23.781Z,100221.66
2019-04-28T07:05:51.488Z,100227.70
2019-04-28T07:08:19.128Z,100230.55
2019-04-28T07:10:46.775Z,100230.70
2019-04-28T07:13:14.523Z,100232.75
2019-04-28T07:15:42.451Z,100241.12
2019-04-28T07:18:10.167Z,100236.84
2019-04-28T07:20:44.513Z,100235.89
2019-04-28T07:23:12.222Z,100242.79
2019-04-28T07:25:39.856Z,100233.03
2019-04-28T07:28:07.505Z,100243.05
2019-04-28T07:30:36.801Z,100241.75
2019-04-28T07:33:04.524Z,100235.45
2019-04-28T07:35:32.167Z,100238.22
2019-04-28T07:37:59.881Z,100248.20
2019-04-28T07:40:27.535Z,100255.88
2019-04-28T07:42:55.253Z,100250.86
2019-04-28T07:45:22.896Z,100249.91
2019-04-28T07:47:50.550Z,100246.91
2019-04-28T07:50:18.260Z,100261.00
2019-04-28T07:52:51.024Z,100259.56
2019-04-28T07:55:18.687Z,100262.15
2019-04-28T07:57:46.347Z,100269.59
2019-04-28T08:00:17.219Z,100262.88
2019-04-28T08:02:44.895Z,100269.92
2019-04-28T08:05:12.636Z,100274.77
2019-04-28T08:07:40.290Z,100270.94
2019-04-28T08:10:07.968Z,100273.03
2019-04-28T08:12:35.620Z,100270.59
2019-04-28T08:15:03.308Z,100289.81
2019-04-28T08:17:30.960Z,100290.12
2019-04-28T08:19:58.614Z,100293.53
2019-04-28T08:22:26.263Z,100297.02
2019-04-28T08:24:53.966Z,100299.64
2019-04-28T08:27:21.690Z,100300.84
2019-04-28T08:29:58.335Z,100314.15
2019-04-28T08:32:26.905Z,100318.02
2019-04-28T08:34:54.559Z,100310.57
2019-04-28T08:37:22.212Z,100315.45
2019-04-28T08:39:49.867Z,100314.31
2019-04-28T08:42:17.612Z,100320.40
2019-04-28T08:44:46.492Z,100315.09
2019-04-28T08:47:14.164Z,100317.66
2019-04-28T08:49:41.915Z,100322.16
2019-04-28T08:52:09.620Z,100325.63
2019-04-28T08:54:37.342Z,100316.45
2019-04-28T08:57:05.006Z,100320.91
2019-04-28T08:59:32.699Z,100322.77
2019-04-28T09:02:00.494Z,100330.16
2019-04-28T09:04:28.140Z,100327.06
2019-04-28T09:06:55.787Z,100323.16
2019-04-28T09:09:24.955Z,100318.89
2019-04-28T09:11:52.607Z,100319.68
2019-04-28T09:14:20.259Z,100321.66
2019-04-28T09:16:47.907Z,100323.75
2019-04-28T09:19:15.902Z,100318.61
2019-04-28T09:21:43.819Z,100317.04
2019-04-28T09:24:11.575Z,100317.67
2019-04-28T09:26:39.224Z,100309.50
2019-04-28T09:29:06.883Z,100308.33
2019-04-28T09:31:34.526Z,100305.88
2019-04-28T09:34:02.250Z,100316.31
2019-04-28T09:36:30.122Z,100312.89
2019-04-28T09:38:58.255Z,100316.98
2019-04-28T09:41:25.964Z,100326.59
2019-04-28T09:43:59.206Z,100322.55
2019-04-28T09:46:30.095Z,100313.75
2019-04-28T09:48:57.745Z,100310.52
2019-04-28T09:51:25.393Z,100310.60
2019-04-28T09:53:53.064Z,100305.55
2019-04-28T09:56:20.780Z,100312.79
2019-04-28T09:58:48.443Z,100311.95
2019-04-28T10:01:16.095Z,100317.05
2019-04-28T10:03:43.764Z,100318.40
2019-04-28T10:06:11.408Z,100307.45
2019-04-28T10:08:39.056Z,100304.83
2019-04-28T10:11:06.695Z,100309.27
2019-04-28T10:13:34.346Z,100316.94
2019-04-28T10:16:01.992Z,100307.76
2019-04-28T10:18:29.693Z,100303.92
2019-04-28T10:20:57.337Z,100309.86
2019-04-28T10:23:25.009Z,100316.34
2019-04-28T10:25:52.647Z,100310.41
2019-04-28T10:28:20.304Z,100311.72
2019-04-28T10:30:47.942Z,100307.75
2019-04-28T10:33:15.787Z,100320.36
2019-04-28T10:35:43.600Z,100325.70
2019-04-28T10:38:11.394Z,100325.27
2019-04-28T10:40:46.826Z,100323.83
2019-04-28T10:43:14.512Z,100314.75
2019-04-28T10:45:46.323Z,100321.62
2019-04-28T10:48:14.047Z,100322.88
2019-04-28T10:50:41.733Z,100328.31
2019-04-28T10:53:09.400Z,100321.69
2019-04-28T10:55:37.205Z,100319.54
2019-04-28T10:58:04.864Z,100323.83
2019-04-28T11:00:34.407Z,100328.83
2019-04-28T11:03:02.072Z,100330.59
2019-04-28T11:05:36.068Z,100335.21
2019-04-28T11:08:05.514Z,100337.62
2019-04-28T11:10:33.147Z,100332.29
2019-04-28T11:13:00.900Z,100332.92
2019-04-28T11:15:33.267Z,100325.61
2019-04-28T11:18:00.918Z,100325.34
2019-04-28T11:20:28.693Z,100327.52
2019-04-28T11:22:56.425Z,100336.41
2019-04-28T11:25:24.076Z,100337.03
2019-04-28T11:27:51.736Z,100337.30
2019-04-28T11:30:20.311Z,100334.23
2019-04-28T11:33:00.136Z,100339.02
2019-04-28T11:35:29.504Z,100343.06
2019-04-28T11:37:57.319Z,100336.81
2019-04-28T11:40:24.968Z,100346.70
2019-04-28T11:42:52.649Z,100335.58
2019-04-28T11:45:20.513Z,100344.42
2019-04-28T11:47:48.243Z,100344.66
2019-04-28T11:50:15.896Z,100348.42
2019-04-28T11:52:43.600Z,100350.55
2019-04-28T11:55:11.543Z,100346.83
2019-04-28T11:57:39.192Z,100345.77
2019-04-28T12:00:12.937Z,100341.01
2019-04-28T12:02:40.782Z,100348.91
2019-04-28T12:05:08.837Z,100344.42
2019-04-28T12:07:36.575Z,100345.36
2019-04-28T12:10:12.055Z,100336.39
2019-04-28T12:12:52.793Z,100347.19
2019-04-28T12:15:33.191Z,100344.66
2019-04-28T12:18:06.262Z,100351.55
2019-04-28T12:20:34.148Z,100350.77
2019-04-28T12:23:01.799Z,100347.32
2019-04-28T12:25:29.496Z,100350.59
2019-04-28T12:27:57.152Z,100349.77
2019-04-28T12:30:24.836Z,100349.89
2019-04-28T12:32:52.615Z,100349.73
2019-04-28T12:35:20.291Z,100349.33
2019-04-28T12:37:48.216Z,100347.25
2019-04-28T12:40:15.911Z,100349.55
2019-04-28T12:42:43.606Z,100348.71
2019-04-28T12:45:11.277Z,100341.86
2019-04-28T12:47:38.950Z,100354.26
2019-04-28T12:50:13.680Z,100352.70
2019-04-28T12:52:41.445Z,100351.31
2019-04-28T12:55:09.398Z,100356.70
2019-04-28T12:57:37.131Z,100353.77
2019-04-28T13:00:10.011Z,100355.16
2019-04-28T13:02:59.805Z,100348.09
2019-04-28T13:05:27.578Z,100346.06
2019-04-28T13:07:55.220Z,100347.72
2019-04-28T13:10:23.014Z,100348.15
2019-04-28T13:12:50.656Z,100347.88
2019-04-28T13:15:18.301Z,100346.95
2019-04-28T13:17:45.955Z,100339.09
2019-04-28T13:20:13.597Z,100346.37
2019-04-28T13:22:41.263Z,100347.22
2019-04-28T13:25:08.903Z,100342.69
2019-04-28T13:27:36.565Z,100345.96
2019-04-28T13:30:04.271Z,100340.35
2019-04-28T13:32:32.044Z,100344.09
2019-04-28T13:34:59.699Z,100346.92
2019-04-28T13:37:27.372Z,100336.05
2019-04-28T13:40:01.494Z,100334.86
2019-04-28T13:42:29.429Z,100335.41
2019-04-28T13:45:01.459Z,100339.67
2019-04-28T13:47:29.117Z,100341.14
2019-04-28T13:50:01.662Z,100331.92
2019-04-28T13:52:29.709Z,100331.75
2019-04-28T13:55:08.294Z,100334.47
2019-04-28T13:57:35.953Z,100328.80
2019-04-28T14:00:05.616Z,100334.52
2019-04-28T14:02:44.283Z,100328.34
2019-04-28T14:05:23.238Z,100325.56
2019-04-28T14:07:51.004Z,100323.44
2019-04-28T14:10:18.721Z,100323.11
2019-04-28T14:12:46.403Z,100328.16
2019-04-28T14:15:14.056Z,100327.67
2019-04-28T14:17:41.754Z,100334.02
2019-04-28T14:20:09.536Z,100331.36
2019-04-28T14:22:37.369Z,100331.09
2019-04-28T14:25:05.093Z,100329.73
2019-04-28T14:27:32.779Z,100333.21
2019-04-28T14:30:00.474Z,100333.59
2019-04-28T14:32:28.149Z,100331.41
2019-04-28T14:34:55.905Z,100330.62
2019-04-28T14:37:23.737Z,100328.78
2019-04-28T14:39:51.582Z,100325.05
2019-04-28T14:42:19.332Z,100322.64
2019-04-28T14:44:47.012Z,100324.86
2019-04-28T14:47:14.733Z,100333.13
2019-04-28T14:49:42.433Z,100328.11
2019-04-28T14:52:10.092Z,100325.37
2019-04-28T14:54:37.740Z,100327.92
2019-04-28T14:57:05.471Z,100324.36
2019-04-28T14:59:33.291Z,100324.27
2019-04-28T15:02:20.075Z,100322.70
2019-04-28T15:04:55.907Z,100331.51
2019-04-28T15:07:46.800Z,100327.39
2019-04-28T15:10:27.605Z,100326.64
2019-04-28T15:12:55.517Z,100328.69
2019-04-28T15:15:23.232Z,100332.59
2019-04-28T15:17:50.923Z,100326.39
2019-04-28T15:20:18.652Z,100327.37
2019-04-28T15:22:46.412Z,100328.98
2019-04-28T15:25:14.155Z,100334.20
2019-04-28T15:27:41.931Z,100330.62
2019-04-28T15:30:09.578Z,100335.03
2019-04-28T15:32:37.231Z,100329.18
2019-04-28T15:35:04.880Z,100328.11
2019-04-28T15:37:32.616Z,100329.00
2019-04-28T15:40:00.263Z,100332.39
2019-04-28T15:42:27.919Z,100328.42
2019-04-28T15:44:55.618Z,100334.64
2019-04-28T15:47:23.296Z,100332.84
2019-04-28T15:49:50.949Z,100330.61
2019-04-28T15:52:18.925Z,100327.09
2019-04-28T15:54:46.548Z,100327.55
2019-04-28T15:57:14.216Z,100324.00
2019-04-28T15:59:41.863Z,100323.65
2019-04-28T16:02:09.515Z,100319.59
2019-04-28T16:04:37.389Z,100324.70
2019-04-28T16:07:05.051Z,100316.41
2019-04-28T16:09:32.703Z,100316.28
2019-04-28T16:12:00.504Z,100312.98
2019-04-28T16:14:28.286Z,100319.42
2019-04-28T16:16:56.017Z,100317.08
2019-04-28T16:19:23.686Z,100317.81
2019-04-28T16:21:51.545Z,100323.32
2019-04-28T16:24:19.280Z,100315.22
2019-04-28T16:26:47.227Z,100314.66
2019-04-28T16:29:14.975Z,100316.13
2019-04-28T16:31:42.631Z,100309.31
2019-04-28T16:34:10.277Z,100310.95
2019-04-28T16:36:38.001Z,100313.22
2019-04-28T16:39:06.124Z,100320.41
2019-04-28T16:41:33.774Z,100310.02
2019-04-28T16:44:01.419Z,100310.01
2019-04-28T16:46:29.091Z,100318.03
2019-04-28T16:48:56.746Z,100319.44
2019-04-28T16:51:24.399Z,100322.86
2019-04-28T16:53:52.057Z,100320.08
2019-04-28T16:56:28.696Z,100320.59
2019-04-28T16:59:04.803Z,100326.47
2019-04-28T17:01:52.521Z,100325.44
2019-04-28T17:04:20.176Z,100323.77
2019-04-28T17:06:47.868Z,100325.56
2019-04-28T17:09:16.212Z,100327.02
2019-04-28T17:11:44.008Z,100335.48
2019-04-28T17:14:11.750Z,100336.16
2019-04-28T17:16:39.399Z,100333.15
2019-04-28T17:19:07.040Z,100336.20
2019-04-28T17:21:34.712Z,100341.45
2019-04-28T17:24:02.422Z,100336.46
2019-04-28T17:26:30.092Z,100346.17
2019-04-28T17:28:57.987Z,100341.81
2019-04-28T17:31:25.653Z,100339.11
2019-04-28T17:33:53.296Z,100348.25
2019-04-28T17:36:20.971Z,100346.46
2019-04-28T17:38:48.628Z,100349.80
2019-04-28T17:41:16.288Z,100347.97
2019-04-28T17:43:43.940Z,100351.55
2019-04-28T17:46:11.592Z,100356.80
2019-04-28T17:48:42.509Z,100355.44
2019-04-28T17:51:10.263Z,100357.27
2019-04-28T17:53:38.055Z,100356.73
2019-04-28T17:56:05.715Z,100363.45
2019-04-28T17:58:33.561Z,100367.47
2019-04-28T18:01:20.332Z,100364.80
2019-04-28T18:04:02.894Z,100371.30
2019-04-28T18:06:31.376Z,100374.88
2019-04-28T18:08:59.348Z,100373.44
2019-04-28T18:11:27.024Z,100379.13
2019-04-28T18:13:54.683Z,100378.23
2019-04-28T18:16:27.688Z,100393.55
2019-04-28T18:18:59.715Z,100392.38
2019-04-28T18:21:27.364Z,100392.69
2019-04-28T18:23:55.176Z,100395.10
2019-04-28T18:26:22.832Z,100392.50
2019-04-28T18:28:50.491Z,100396.21
2019-04-28T18:31:23.269Z,100400.40
2019-04-28T18:33:59.016Z,100405.02
2019-04-28T18:36:33.630Z,100397.45
2019-04-28T18:39:11.984Z,100409.87
2019-04-28T18:41:47.205Z,100417.34
2019-04-28T18:44:18.330Z,100408.83
2019-04-28T18:46:45.975Z,100413.92
2019-04-28T18:49:13.612Z,100413.97
2019-04-28T18:51:41.326Z,100414.95
2019-04-28T18:54:08.977Z,100415.22
2019-04-28T18:56:36.616Z,100412.57
2019-04-28T18:59:04.366Z,100415.28
2019-04-28T19:01:41.799Z,100418.62
2019-04-28T19:04:09.435Z,100416.22
2019-04-28T19:06:37.203Z,100423.98
2019-04-28T19:09:19.676Z,100419.30
2019-04-28T19:11:51.541Z,100418.56
2019-04-28T19:14:26.499Z,100421.91
2019-04-28T19:17:15.148Z,100424.15
2019-04-28T19:19:42.849Z,100426.25
2019-04-28T19:22:10.500Z,100428.62
2019-04-28T19:24:38.230Z,100427.58
2019-04-28T19:27:05.878Z,100432.91
2019-04-28T19:29:33.524Z,100438.33
2019-04-28T19:32:01.176Z,100432.81
2019-04-28T19:34:28.840Z,100438.45
2019-04-28T19:36:56.563Z,100430.37
2019-04-28T19:39:24.215Z,100433.03
2019-04-28T19:41:51.863Z,100432.97
2019-04-28T19:44:19.522Z,100430.59
2019-04-28T19:46:47.167Z,100431.22
2019-04-28T19:49:14.860Z,100434.14
2019-04-28T19:51:42.793Z,100431.05
2019-04-28T19:54:11.103Z,100432.88
2019-04-28T19:56:43.743Z,100436.78
2019-04-28T19:59:16.755Z,100446.20
2019-04-28T20:01:44.489Z,100446.09
2019-04-28T20:04:12.134Z,100445.05
2019-04-28T20:06:39.785Z,100451.80
2019-04-28T20:09:07.418Z,100440.12
2019-04-28T20:11:35.067Z,100451.13
2019-04-28T20:14:02.745Z,100447.56
2019-04-28T20:16:30.457Z,100441.31
2019-04-28T20:18:58.093Z,100445.62
2019-04-28T20:21:25.807Z,100447.15
2019-04-28T20:23:53.444Z,100448.34
2019-04-28T20:26:21.091Z,100446.17
2019-04-28T20:28:48.727Z,100445.89
2019-04-28T20:31:16.456Z,100443.55
2019-04-28T20:33:44.179Z,100440.16
2019-04-28T20:36:18.432Z,100441.85
2019-04-28T20:38:47.439Z,100440.02
2019-04-28T20:41:20.840Z,100443.45
2019-04-28T20:43:48.474Z,100442.39
2019-04-28T21:00:51.715Z,100442.59
2019-04-28T21:03:19.456Z,100443.20
2019-04-28T21:05:47.101Z,100444.53
2019-04-28T21:08:14.822Z,100448.34
2019-04-28T21:10:42.496Z,100452.01
2019-04-28T21:13:10.135Z,100443.82
2019-04-28T21:15:37.789Z,100448.10
2019-04-28T21:18:05.419Z,100447.28
2019-04-28T21:20:33.068Z,100454.32
2019-04-28T21:23:00.711Z,100453.67
2019-04-28T21:25:28.385Z,100455.10
2019-04-28T21:27:56.075Z,100456.77
2019-04-28T21:30:23.872Z,100448.71
2019-04-28T21:32:51.568Z,100453.71
2019-04-28T21:35:19.211Z,100452.52
2019-04-28T21:37:47.129Z,100453.84
2019-04-28T21:40:15.960Z,100454.09
2019-04-28T21:42:48.935Z,100455.83
2019-04-28T21:45:28.515Z,100453.97
2019-04-28T21:47:56.248Z,100453.67
2019-04-28T21:50:24.001Z,100454.86
2019-04-28T21:52:51.642Z,100457.10
2019-04-28T21:55:19.275Z,100453.09
2019-04-28T21:57:47.327Z,100456.15
2019-04-28T22:00:17.783Z,100456.19
2019-04-28T22:02:45.447Z,100452.55
2019-04-28T22:05:13.235Z,100454.16
2019-04-28T22:07:40.895Z,100461.08
2019-04-28T22:10:08.707Z,100461.48
2019-04-28T22:12:36.388Z,100464.17
2019-04-28T22:15:04.024Z,100459.14
2019-04-28T22:17:31.673Z,100454.66
2019-04-28T22:19:59.314Z,100459.95
2019-04-28T22:22:26.958Z,100452.83
2019-04-28T22:25:01.466Z,100455.51
2019-04-28T22:30:00.563Z,100456.66
2019-04-28T22:32:28.294Z,100460.06
2019-04-28T22:37:21.923Z,100461.11
2019-04-28T22:39:49.678Z,100461.70
2019-04-28T22:44:43.287Z,100464.55
2019-04-28T22:47:10.991Z,100466.89
2019-04-28T22:52:04.582Z,100468.61
2019-04-28T22:57:19.099Z,100456.19
2019-04-28T23:02:15.647Z,100462.33
2019-04-28T23:07:20.285Z,100469.12
2019-04-28T23:09:47.928Z,100463.91
2019-04-28T23:14:41.541Z,100463.39
2019-04-28T23:17:10.837Z,100457.98
2019-04-28T23:22:12.203Z,100462.67
2019-04-28T23:24:39.885Z,100461.52
2019-04-28T23:27:07.867Z,100462.01
2019-04-28T23:29:35.612Z,100462.89
2019-04-28T23:34:29.182Z,100466.34
2019-04-28T23:36:56.945Z,100462.70
2019-04-28T23:39:24.671Z,100457.32
2019-04-28T23:41:58.324Z,100458.55
2019-04-28T23:44:25.977Z,100458.72
2019-04-28T23:46:56.900Z,100455.20
2019-04-28T23:49:25.024Z,100455.66
2019-04-28T23:54:18.826Z,100445.81
2019-04-28T23:56:46.517Z,100451.44
